createdAt,value
2018-03-04T00:00:28.023Z,78.20
2018-03-04T00:01:30.595Z,74.10
2018-03-04T00:02:33.118Z,82.97
2018-03-04T00:03:35.623Z,80.62
2018-03-04T00:04:38.133Z,76.78
2018-03-04T00:05:40.731Z,78.60
2018-03-04T00:06:43.238Z,80.62
2018-03-04T00:07:45.749Z,80.43
2018-03-04T00:08:48.250Z,82.62
2018-03-04T00:09:51.520Z,83.90
2018-03-04T00:10:54.810Z,82.37
2018-03-04T00:11:58.079Z,81.63
2018-03-04T00:13:00.584Z,75.55
2018-03-04T00:14:03.095Z,77.78
2018-03-04T00:15:05.603Z,80.97
2018-03-04T00:16:08.126Z,80.90
2018-03-04T00:17:10.631Z,69.45
2018-03-04T00:18:13.144Z,78.12
2018-03-04T00:19:15.655Z,76.97
2018-03-04T00:20:18.927Z,80.05
2018-03-04T00:21:22.226Z,79.22
2018-03-04T00:22:36.551Z,74.85
2018-03-04T00:23:39.822Z,72.32
2018-03-04T00:24:42.337Z,75.15
2018-03-04T00:25:44.843Z,77.15
2018-03-04T00:26:47.374Z,76.87
2018-03-04T00:27:49.871Z,74.50
2018-03-04T00:28:52.376Z,75.03
2018-03-04T00:29:55.639Z,79.53
2018-03-04T00:30:58.940Z,82.68
2018-03-04T00:32:02.231Z,78.47
2018-03-04T00:33:04.799Z,82.12
2018-03-04T00:34:07.306Z,79.00
2018-03-04T00:35:09.802Z,85.80
2018-03-04T00:36:12.308Z,81.78
2018-03-04T00:37:14.827Z,81.07
2018-03-04T00:38:17.345Z,85.95
2018-03-04T00:39:19.887Z,76.28
2018-03-04T00:40:22.387Z,77.65
2018-03-04T00:41:24.890Z,76.00
2018-03-04T00:42:27.411Z,76.25
2018-03-04T00:43:29.946Z,74.07
2018-03-04T00:44:33.211Z,70.12
2018-03-04T00:45:36.483Z,83.28
2018-03-04T00:46:39.755Z,75.70
2018-03-04T00:47:42.287Z,78.45
2018-03-04T00:48:44.787Z,79.53
2018-03-04T00:49:47.294Z,82.18
2018-03-04T00:50:49.858Z,81.15
2018-03-04T00:51:53.126Z,81.53
2018-03-04T00:52:56.429Z,76.62
2018-03-04T00:53:58.934Z,78.35
2018-03-04T00:55:01.435Z,79.45
2018-03-04T00:56:03.939Z,84.40
2018-03-04T00:57:06.441Z,74.10
2018-03-04T00:58:08.956Z,79.70
2018-03-04T00:59:11.467Z,75.93
2018-03-04T01:00:13.988Z,84.72
2018-03-04T01:01:16.490Z,82.50
2018-03-04T01:02:19.011Z,76.43
2018-03-04T01:03:21.531Z,81.95
2018-03-04T01:04:24.031Z,79.40
2018-03-04T01:05:27.336Z,75.60
2018-03-04T01:06:29.834Z,87.10
2018-03-04T01:07:32.340Z,83.20
2018-03-04T01:08:35.654Z,80.72
2018-03-04T01:09:38.159Z,85.15
2018-03-04T01:10:40.658Z,88.43
2018-03-04T01:11:43.931Z,81.78
2018-03-04T01:12:46.447Z,81.43
2018-03-04T01:13:48.978Z,89.95
2018-03-04T01:14:52.251Z,74.15
2018-03-04T01:15:55.538Z,75.07
2018-03-04T01:16:58.811Z,84.28
2018-03-04T01:18:01.337Z,81.22
2018-03-04T01:19:03.863Z,90.43
2018-03-04T01:20:07.126Z,90.72
2018-03-04T01:21:10.401Z,84.47
2018-03-04T01:22:12.908Z,84.32
2018-03-04T01:23:15.416Z,85.50
2018-03-04T01:24:17.947Z,85.18
2018-03-04T01:25:20.483Z,90.68
2018-03-04T01:26:23.751Z,90.50
2018-03-04T01:27:26.257Z,90.50
2018-03-04T01:28:28.762Z,97.57
2018-03-04T01:29:31.292Z,90.35
2018-03-04T01:30:33.798Z,94.78
2018-03-04T01:31:36.310Z,100.47
2018-03-04T01:32:38.807Z,96.15
2018-03-04T01:33:41.315Z,85.45
2018-03-04T01:34:43.842Z,90.47
2018-03-04T01:35:46.400Z,86.50
2018-03-04T01:36:48.890Z,91.95
2018-03-04T01:37:51.389Z,88.53
2018-03-04T01:38:54.667Z,85.38
2018-03-04T01:39:57.952Z,81.63
2018-03-04T01:41:01.244Z,84.68
2018-03-04T01:42:04.519Z,89.70
2018-03-04T01:43:07.819Z,96.37
2018-03-04T01:44:10.324Z,87.60
2018-03-04T01:45:12.851Z,83.43
2018-03-04T01:46:15.360Z,78.03
2018-03-04T01:47:17.867Z,82.85
2018-03-04T01:48:21.147Z,84.87
2018-03-04T01:49:24.422Z,89.85
2018-03-04T01:50:26.950Z,83.80
2018-03-04T01:53:05.807Z,76.97
2018-03-04T01:54:08.314Z,87.72
2018-03-04T01:55:10.835Z,85.90
2018-03-04T01:56:13.376Z,83.68
2018-03-04T01:57:15.895Z,88.95
2018-03-04T01:58:19.195Z,91.65
2018-03-04T01:59:21.699Z,86.25
2018-03-04T02:00:24.199Z,82.60
2018-03-04T02:01:27.490Z,86.90
2018-03-04T02:02:30.762Z,88.75
2018-03-04T02:03:33.266Z,84.65
2018-03-04T02:04:35.796Z,88.15
2018-03-04T02:05:39.072Z,86.28
2018-03-04T02:06:42.366Z,81.15
2018-03-04T02:07:45.644Z,88.07
2018-03-04T02:08:48.914Z,89.47
2018-03-04T02:09:51.443Z,86.72
2018-03-04T02:10:53.954Z,92.18
2018-03-04T02:11:57.241Z,80.22
2018-03-04T02:13:00.512Z,90.60
2018-03-04T02:14:03.038Z,86.60
2018-03-04T02:15:05.546Z,87.90
2018-03-04T02:16:08.824Z,89.53
2018-03-04T02:17:11.483Z,85.72
2018-03-04T02:18:13.978Z,84.00
2018-03-04T02:19:17.260Z,82.22
2018-03-04T02:20:20.539Z,88.60
2018-03-04T02:21:23.802Z,85.85
2018-03-04T02:22:26.326Z,94.20
2018-03-04T02:23:28.838Z,79.72
2018-03-04T02:24:31.348Z,85.60
2018-03-04T02:25:33.862Z,87.55
2018-03-04T02:26:36.363Z,84.00
2018-03-04T02:27:38.899Z,84.70
2018-03-04T02:28:41.434Z,85.80
2018-03-04T02:29:43.948Z,79.40
2018-03-04T02:30:47.206Z,83.95
2018-03-04T02:31:49.713Z,82.30
2018-03-04T02:32:52.274Z,84.68
2018-03-04T02:33:55.554Z,82.37
2018-03-04T02:34:58.855Z,83.70
2018-03-04T02:36:01.369Z,85.03
2018-03-04T02:37:03.874Z,82.07
2018-03-04T02:38:06.395Z,82.57
2018-03-04T02:39:08.900Z,79.93
2018-03-04T02:40:12.171Z,86.00
2018-03-04T02:41:15.435Z,84.43
2018-03-04T02:42:17.942Z,84.85
2018-03-04T02:43:20.467Z,84.93
2018-03-04T02:44:22.980Z,82.40
2018-03-04T02:45:25.480Z,82.05
2018-03-04T02:46:27.984Z,76.43
2018-03-04T02:47:31.263Z,82.97
2018-03-04T02:48:34.538Z,84.75
2018-03-04T02:49:37.815Z,82.55
2018-03-04T02:50:40.335Z,82.90
2018-03-04T02:51:42.843Z,83.07
2018-03-04T02:52:46.846Z,82.55
2018-03-04T02:53:49.382Z,83.47
2018-03-04T02:54:51.895Z,84.18
2018-03-04T02:55:55.175Z,81.03
2018-03-04T02:56:58.449Z,83.72
2018-03-04T02:58:00.964Z,78.75
2018-03-04T02:59:03.491Z,81.40
2018-03-04T03:00:06.007Z,84.78
2018-03-04T03:01:08.514Z,80.25
2018-03-04T03:02:11.016Z,76.97
2018-03-04T03:03:13.518Z,87.50
2018-03-04T03:04:16.042Z,73.72
2018-03-04T03:05:18.543Z,85.50
2018-03-04T03:06:21.069Z,89.65
2018-03-04T03:07:23.575Z,81.50
2018-03-04T03:08:26.083Z,84.72
2018-03-04T03:09:30.115Z,89.60
2018-03-04T03:10:32.611Z,77.40
2018-03-04T03:11:35.126Z,85.22
2018-03-04T03:12:37.618Z,83.40
2018-03-04T03:13:40.161Z,79.60
2018-03-04T03:14:42.687Z,82.57
2018-03-04T03:15:45.191Z,84.78
2018-03-04T03:16:47.705Z,88.93
2018-03-04T03:17:50.207Z,83.68
2018-03-04T03:18:53.475Z,82.00
2018-03-04T03:19:56.007Z,80.80
2018-03-04T03:20:58.516Z,92.05
2018-03-04T03:22:01.784Z,80.55
2018-03-04T03:23:05.056Z,88.15
2018-03-04T03:24:07.572Z,83.43
2018-03-04T03:25:10.099Z,79.25
2018-03-04T03:26:12.611Z,81.50
2018-03-04T03:27:15.118Z,81.50
2018-03-04T03:28:17.634Z,78.60
2018-03-04T03:29:20.150Z,82.97
2018-03-04T03:30:22.679Z,82.37
2018-03-04T03:31:25.184Z,90.55
2018-03-04T03:32:27.798Z,87.88
2018-03-04T03:33:30.310Z,83.95
2018-03-04T03:34:32.816Z,77.43
2018-03-04T03:35:35.351Z,80.97
2018-03-04T03:36:37.843Z,83.25
2018-03-04T03:37:41.114Z,79.20
2018-03-04T03:38:44.375Z,86.55
2018-03-04T03:39:46.879Z,78.70
2018-03-04T03:40:50.166Z,72.50
2018-03-04T03:41:52.740Z,78.47
2018-03-04T03:42:55.250Z,85.72
2018-03-04T03:43:57.753Z,69.78
2018-03-04T03:45:01.015Z,80.35
2018-03-04T03:46:03.542Z,80.90
2018-03-04T03:47:06.042Z,84.10
2018-03-04T03:48:08.550Z,77.95
2018-03-04T03:49:11.056Z,82.50
2018-03-04T03:50:13.584Z,83.50
2018-03-04T03:51:16.113Z,80.38
2018-03-04T03:52:18.627Z,84.22
2018-03-04T03:53:21.134Z,75.72
2018-03-04T03:54:23.640Z,84.40
2018-03-04T03:55:26.152Z,82.55
2018-03-04T03:56:28.678Z,87.20
2018-03-04T03:57:31.191Z,80.45
2018-03-04T03:58:33.690Z,82.80
2018-03-04T03:59:36.961Z,78.30
2018-03-04T04:00:40.234Z,81.12
2018-03-04T04:01:42.752Z,78.22
2018-03-04T04:02:45.258Z,73.25
2018-03-04T04:03:47.767Z,73.80
2018-03-04T04:04:50.267Z,73.20
2018-03-04T04:05:52.767Z,82.88
2018-03-04T04:06:56.067Z,80.30
2018-03-04T04:07:59.352Z,79.93
2018-03-04T04:09:01.856Z,83.40
2018-03-04T04:10:04.355Z,80.35
2018-03-04T04:11:06.959Z,78.95
2018-03-04T04:12:09.480Z,80.32
2018-03-04T04:13:11.984Z,74.37
2018-03-04T04:14:14.665Z,82.10
2018-03-04T04:15:17.166Z,80.53
2018-03-04T04:16:19.679Z,74.85
2018-03-04T04:17:22.975Z,81.65
2018-03-04T04:18:25.477Z,74.00
2018-03-04T04:19:27.974Z,74.87
2018-03-04T04:20:30.488Z,81.40
2018-03-04T04:21:32.996Z,77.70
2018-03-04T04:22:35.592Z,87.12
2018-03-04T04:23:38.090Z,81.00
2018-03-04T04:24:40.586Z,82.05
2018-03-04T04:25:43.095Z,82.78
2018-03-04T04:26:45.603Z,80.95
2018-03-04T04:27:48.130Z,77.90
2018-03-04T04:28:50.635Z,80.70
2018-03-04T04:29:53.130Z,82.90
2018-03-04T04:30:56.402Z,79.78
2018-03-04T04:31:58.910Z,78.95
2018-03-04T04:33:01.474Z,82.47
2018-03-04T04:34:03.974Z,77.47
2018-03-04T04:35:06.478Z,83.90
2018-03-04T04:36:09.746Z,79.32
2018-03-04T04:37:12.274Z,79.32
2018-03-04T04:38:15.671Z,81.75
2018-03-04T04:39:18.232Z,78.10
2018-03-04T04:40:20.732Z,81.37
2018-03-04T04:41:23.250Z,80.85
2018-03-04T04:42:25.764Z,85.50
2018-03-04T04:43:28.292Z,81.65
2018-03-04T04:44:30.807Z,82.00
2018-03-04T04:45:34.071Z,82.60
2018-03-04T04:46:36.576Z,77.47
2018-03-04T04:47:39.143Z,74.18
2018-03-04T04:48:41.675Z,72.70
2018-03-04T04:49:44.177Z,75.60
2018-03-04T04:50:46.672Z,78.03
2018-03-04T04:51:49.175Z,81.72
2018-03-04T04:52:52.447Z,78.50
2018-03-04T04:53:55.026Z,83.20
2018-03-04T04:54:57.498Z,76.47
2018-03-04T04:56:00.794Z,74.00
2018-03-04T04:57:03.365Z,73.40
2018-03-04T04:58:05.877Z,75.93
2018-03-04T04:59:08.408Z,80.90
2018-03-04T05:00:10.935Z,77.82
2018-03-04T05:01:13.436Z,78.18
2018-03-04T05:02:15.978Z,81.80
2018-03-04T05:03:19.255Z,77.97
2018-03-04T05:04:22.545Z,79.78
2018-03-04T05:05:25.819Z,77.45
2018-03-04T05:06:28.326Z,82.12
2018-03-04T05:07:30.826Z,76.90
2018-03-04T05:08:33.328Z,74.57
2018-03-04T05:09:36.630Z,82.75
2018-03-04T05:10:39.159Z,75.37
2018-03-04T05:11:41.661Z,73.87
2018-03-04T05:12:44.163Z,75.93
2018-03-04T05:13:46.687Z,73.72
2018-03-04T05:14:49.211Z,79.40
2018-03-04T05:15:51.720Z,76.25
2018-03-04T05:16:54.236Z,75.07
2018-03-04T05:17:56.733Z,80.28
2018-03-04T05:18:59.999Z,83.47
2018-03-04T05:20:02.547Z,79.28
2018-03-04T05:21:05.069Z,74.65
2018-03-04T05:22:07.580Z,75.82
2018-03-04T05:23:10.098Z,80.18
2018-03-04T05:24:12.606Z,75.35
2018-03-04T05:25:15.131Z,82.80
2018-03-04T05:26:17.634Z,80.80
2018-03-04T05:27:20.138Z,77.03
2018-03-04T05:28:23.414Z,79.78
2018-03-04T05:29:26.674Z,77.68
2018-03-04T05:30:29.196Z,77.70
2018-03-04T05:31:31.703Z,78.22
2018-03-04T05:32:34.200Z,74.47
2018-03-04T05:33:37.475Z,76.65
2018-03-04T05:34:40.744Z,79.93
2018-03-04T05:35:43.297Z,85.62
2018-03-04T05:36:45.794Z,77.30
2018-03-04T05:37:49.072Z,79.18
2018-03-04T05:38:52.367Z,63.00
2018-03-04T05:39:55.655Z,79.40
2018-03-04T05:40:58.967Z,80.35
2018-03-04T05:42:01.476Z,80.82
2018-03-04T05:43:03.993Z,78.45
2018-03-04T05:44:06.494Z,82.93
2018-03-04T05:45:09.558Z,80.87
2018-03-04T05:46:12.199Z,77.18
2018-03-04T05:47:14.707Z,80.40
2018-03-04T05:48:17.235Z,77.97
2018-03-04T05:49:19.743Z,81.90
2018-03-04T05:50:22.265Z,90.15
2018-03-04T05:51:24.798Z,79.37
2018-03-04T05:52:28.067Z,82.70
2018-03-04T05:53:30.577Z,77.85
2018-03-04T05:54:33.086Z,82.00
2018-03-04T05:55:35.586Z,81.18
2018-03-04T05:56:38.863Z,83.30
2018-03-04T05:57:42.143Z,77.82
2018-03-04T05:58:45.410Z,84.72
2018-03-04T05:59:48.686Z,82.78
2018-03-04T06:00:51.191Z,79.72
2018-03-04T06:01:53.711Z,85.00
2018-03-04T06:02:56.238Z,85.82
2018-03-04T06:03:58.754Z,79.28
2018-03-04T06:05:01.258Z,85.65
2018-03-04T06:06:03.764Z,80.82
2018-03-04T06:07:06.317Z,84.70
2018-03-04T06:08:08.849Z,82.32
2018-03-04T06:09:11.369Z,78.43
2018-03-04T06:10:13.881Z,79.43
2018-03-04T06:11:16.407Z,87.03
2018-03-04T06:12:19.757Z,73.12
2018-03-04T06:13:22.244Z,79.05
2018-03-04T06:14:24.755Z,81.03
2018-03-04T06:15:28.038Z,80.60
2018-03-04T06:16:31.311Z,81.78
2018-03-04T06:17:34.633Z,85.93
2018-03-04T06:18:37.135Z,85.75
2018-03-04T06:19:39.655Z,82.10
2018-03-04T06:20:43.095Z,83.90
2018-03-04T06:21:45.722Z,76.55
2018-03-04T06:22:48.250Z,82.62
2018-03-04T06:23:51.527Z,81.97
2018-03-04T06:24:54.791Z,89.37
2018-03-04T06:25:57.300Z,84.93
2018-03-04T06:26:59.807Z,99.53
2018-03-04T06:28:02.327Z,90.75
2018-03-04T06:29:04.837Z,90.75
2018-03-04T06:30:07.374Z,93.28
2018-03-04T06:31:09.887Z,96.57
2018-03-04T06:32:13.180Z,91.18
2018-03-04T06:33:15.723Z,106.12
2018-03-04T06:34:18.234Z,94.65
2018-03-04T06:35:21.516Z,104.60
2018-03-04T06:36:24.790Z,95.68
2018-03-04T06:37:28.071Z,90.12
2018-03-04T06:38:31.396Z,96.15
2018-03-04T06:39:33.916Z,92.45
2018-03-04T06:40:37.212Z,93.65
2018-03-04T06:41:40.489Z,103.20
2018-03-04T06:42:43.802Z,96.15
2018-03-04T06:43:46.341Z,77.43
2018-03-04T06:44:50.653Z,95.05
2018-03-04T06:45:53.940Z,94.50
2018-03-04T06:46:57.218Z,100.12
2018-03-04T06:48:00.514Z,92.05
2018-03-04T06:49:03.105Z,94.32
2018-03-04T06:50:05.627Z,103.93
2018-03-04T06:51:08.907Z,98.80
2018-03-04T06:52:12.178Z,84.85
2018-03-04T06:53:14.686Z,85.28
2018-03-04T06:54:17.226Z,91.47
2018-03-04T06:55:20.497Z,94.20
2018-03-04T06:56:23.775Z,92.88
2018-03-04T06:57:26.271Z,88.55
2018-03-04T06:58:29.549Z,92.47
2018-03-04T06:59:32.850Z,92.88
2018-03-04T07:00:35.367Z,82.22
2018-03-04T07:01:37.881Z,97.25
2018-03-04T07:02:40.407Z,94.60
2018-03-04T07:03:42.923Z,93.37
2018-03-04T07:04:45.461Z,86.53
2018-03-04T07:05:48.737Z,87.30
2018-03-04T07:06:52.015Z,90.10
2018-03-04T07:07:55.283Z,89.20
2018-03-04T07:08:57.792Z,84.35
2018-03-04T07:10:00.334Z,91.45
2018-03-04T07:11:03.661Z,88.35
2018-03-04T07:12:06.163Z,80.70
2018-03-04T07:13:08.683Z,81.43
2018-03-04T07:14:11.186Z,82.47
2018-03-04T07:15:13.712Z,84.43
2018-03-04T07:16:16.227Z,86.68
2018-03-04T07:17:18.790Z,82.32
2018-03-04T07:18:21.301Z,88.25
2018-03-04T07:19:23.821Z,89.15
2018-03-04T07:20:26.420Z,92.85
2018-03-04T07:21:32.513Z,80.15
2018-03-04T07:22:35.023Z,83.72
2018-03-04T07:23:38.290Z,84.13
2018-03-04T07:24:41.546Z,88.93
2018-03-04T07:25:44.082Z,83.62
2018-03-04T07:26:46.590Z,91.70
2018-03-04T07:27:49.094Z,88.65
2018-03-04T07:28:52.399Z,89.03
2018-03-04T07:29:54.975Z,83.40
2018-03-04T07:30:57.531Z,88.50
2018-03-04T07:32:00.042Z,83.82
2018-03-04T07:33:02.555Z,85.50
2018-03-04T07:34:05.067Z,78.20
2018-03-04T07:35:07.657Z,87.57
2018-03-04T07:36:10.130Z,81.43
2018-03-04T07:37:13.403Z,79.72
2018-03-04T07:38:15.906Z,86.63
2018-03-04T07:39:18.418Z,82.35
2018-03-04T07:40:20.932Z,79.80
2018-03-04T07:41:23.481Z,81.72
2018-03-04T07:42:26.755Z,79.18
2018-03-04T07:43:30.049Z,79.35
2018-03-04T07:44:33.331Z,76.43
2018-03-04T07:45:36.603Z,71.40
2018-03-04T07:46:39.132Z,83.07
2018-03-04T07:47:41.651Z,82.97
2018-03-04T07:48:44.971Z,86.18
2018-03-04T07:49:47.475Z,80.50
2018-03-04T07:50:51.499Z,80.18
2018-03-04T07:51:54.790Z,78.80
2018-03-04T07:52:57.323Z,79.53
2018-03-04T07:53:59.839Z,73.25
2018-03-04T07:55:02.347Z,77.53
2018-03-04T07:56:04.862Z,71.45
2018-03-04T07:57:07.416Z,72.20
2018-03-04T07:58:09.919Z,74.25
2018-03-04T07:59:12.444Z,70.22
2018-03-04T08:00:15.719Z,71.43
2018-03-04T08:01:18.987Z,72.85
2018-03-04T08:02:21.581Z,74.10
2018-03-04T08:03:24.088Z,65.97
2018-03-04T08:04:26.609Z,70.35
2018-03-04T08:05:29.887Z,76.55
2018-03-04T08:06:33.179Z,73.12
2018-03-04T08:07:36.710Z,74.40
2018-03-04T08:08:39.223Z,70.97
2018-03-04T08:09:42.499Z,65.28
2018-03-04T08:10:45.780Z,70.15
2018-03-04T08:11:49.050Z,67.93
2018-03-04T08:12:51.599Z,68.57
2018-03-04T08:13:54.138Z,68.05
2018-03-04T08:14:56.644Z,74.03
2018-03-04T08:15:59.153Z,67.93
2018-03-04T08:17:01.665Z,68.82
2018-03-04T08:18:04.289Z,64.62
2018-03-04T08:19:06.816Z,75.10
2018-03-04T08:20:10.139Z,76.55
2018-03-04T08:21:12.652Z,68.07
2018-03-04T08:22:15.151Z,74.55
2018-03-04T08:23:18.439Z,66.32
2018-03-04T08:24:33.676Z,71.25
2018-03-04T08:25:36.996Z,68.80
2018-03-04T08:26:51.287Z,68.60
2018-03-04T08:28:05.752Z,67.03
2018-03-04T08:29:08.274Z,55.55
2018-03-04T08:30:10.783Z,64.00
2018-03-04T08:31:13.354Z,68.15
2018-03-04T08:32:15.857Z,65.57
2018-03-04T08:33:18.386Z,62.58
2018-03-04T08:34:21.655Z,62.50
2018-03-04T08:35:24.180Z,63.38
2018-03-04T08:36:26.751Z,64.57
2018-03-04T08:37:29.299Z,62.62
2018-03-04T08:38:31.839Z,64.12
2018-03-04T08:39:35.133Z,55.42
2018-03-04T08:40:37.640Z,66.25
2018-03-04T08:41:40.148Z,68.43
2018-03-04T08:42:44.779Z,66.43
2018-03-04T08:43:48.093Z,64.50
2018-03-04T08:44:50.617Z,63.95
2018-03-04T08:45:53.161Z,65.03
2018-03-04T08:46:55.703Z,65.53
2018-03-04T08:47:58.213Z,66.62
2018-03-04T08:49:01.547Z,67.07
2018-03-04T08:50:04.051Z,63.30
2018-03-04T08:51:06.619Z,63.87
2018-03-04T08:52:09.891Z,66.75
2018-03-04T08:53:12.427Z,60.90
2018-03-04T08:54:15.700Z,62.47
2018-03-04T08:55:18.207Z,62.75
2018-03-04T08:56:20.727Z,62.05
2018-03-04T08:57:23.226Z,61.15
2018-03-04T08:58:25.739Z,61.97
2018-03-04T08:59:28.289Z,64.03
2018-03-04T09:00:31.570Z,65.43
2018-03-04T09:01:34.843Z,62.05
2018-03-04T09:02:37.359Z,66.25
2018-03-04T09:03:39.894Z,65.95
2018-03-04T09:04:42.452Z,65.30
2018-03-04T09:05:45.884Z,59.60
2018-03-04T09:06:48.393Z,68.50
2018-03-04T09:07:50.910Z,67.07
2018-03-04T09:08:53.412Z,61.58
2018-03-04T09:09:56.019Z,58.95
2018-03-04T09:10:59.294Z,65.30
2018-03-04T09:12:02.572Z,66.60
2018-03-04T09:13:05.850Z,64.15
2018-03-04T09:14:09.117Z,60.67
2018-03-04T09:15:11.651Z,64.53
2018-03-04T09:16:14.162Z,62.47
2018-03-04T09:17:16.684Z,67.55
2018-03-04T09:18:20.001Z,68.72
2018-03-04T09:19:22.507Z,65.72
2018-03-04T09:20:25.035Z,65.18
2018-03-04T09:21:27.542Z,61.92
2018-03-04T09:22:30.047Z,67.15
2018-03-04T09:23:32.551Z,59.10
2018-03-04T09:24:35.824Z,60.05
2018-03-04T09:25:39.152Z,66.05
2018-03-04T09:26:41.639Z,67.62
2018-03-04T09:27:44.136Z,65.55
2018-03-04T09:28:46.649Z,71.72
2018-03-04T09:29:49.171Z,67.00
2018-03-04T09:30:52.587Z,70.90
2018-03-04T09:31:55.095Z,71.50
2018-03-04T09:32:57.598Z,67.22
2018-03-04T09:34:00.879Z,66.97
2018-03-04T09:35:04.203Z,63.67
2018-03-04T09:36:06.861Z,70.87
2018-03-04T09:37:09.418Z,71.03
2018-03-04T09:38:11.927Z,67.62
2018-03-04T09:39:14.427Z,65.68
2018-03-04T09:40:17.698Z,62.50
2018-03-04T09:41:21.415Z,65.75
2018-03-04T09:42:23.979Z,60.08
2018-03-04T09:43:26.495Z,58.78
2018-03-04T09:44:29.010Z,58.65
2018-03-04T09:45:31.549Z,61.37
2018-03-04T09:46:34.199Z,54.03
2018-03-04T09:47:36.703Z,65.07
2018-03-04T09:48:39.971Z,58.03
2018-03-04T09:49:42.516Z,55.63
2018-03-04T09:50:45.040Z,58.45
2018-03-04T09:51:47.569Z,58.45
2018-03-04T09:52:50.834Z,61.30
2018-03-04T09:53:53.372Z,52.08
2018-03-04T09:54:56.695Z,55.53
2018-03-04T09:55:59.991Z,57.10
2018-03-04T09:57:03.327Z,55.17
2018-03-04T09:58:05.899Z,56.58
2018-03-04T09:59:08.401Z,55.03
2018-03-04T10:00:11.136Z,56.75
2018-03-04T10:01:13.652Z,51.83
2018-03-04T10:02:17.065Z,55.83
2018-03-04T10:03:19.589Z,50.75
2018-03-04T10:04:22.102Z,54.08
2018-03-04T10:05:24.621Z,54.85
2018-03-04T10:06:27.175Z,53.60
2018-03-04T10:07:29.700Z,55.03
2018-03-04T10:08:32.218Z,53.38
2018-03-04T10:09:34.735Z,53.28
2018-03-04T10:10:37.235Z,51.72
2018-03-04T10:11:39.734Z,54.22
2018-03-04T10:12:42.279Z,53.40
2018-03-04T10:13:45.582Z,55.70
2018-03-04T10:14:48.873Z,55.03
2018-03-04T10:15:51.388Z,56.45
2018-03-04T10:16:53.895Z,57.10
2018-03-04T10:17:57.199Z,57.70
2018-03-04T10:18:59.703Z,53.87
2018-03-04T10:20:02.213Z,57.13
2018-03-04T10:21:05.488Z,58.20
2018-03-04T10:22:08.758Z,61.03
2018-03-04T10:23:11.286Z,55.50
2018-03-04T10:24:13.802Z,54.85
2018-03-04T10:25:17.079Z,50.75
2018-03-04T10:26:20.372Z,56.22
2018-03-04T10:27:23.655Z,49.55
2018-03-04T10:28:26.946Z,52.35
2018-03-04T10:29:30.242Z,51.15
2018-03-04T10:30:32.747Z,52.97
2018-03-04T10:31:35.254Z,51.65
2018-03-04T10:32:38.539Z,49.00
2018-03-04T10:33:41.828Z,51.15
2018-03-04T10:34:45.138Z,50.85
2018-03-04T10:35:47.655Z,55.78
2018-03-04T10:36:50.158Z,51.88
2018-03-04T10:37:52.710Z,47.70
2018-03-04T10:38:55.234Z,48.28
2018-03-04T10:39:57.754Z,47.85
2018-03-04T10:41:00.269Z,49.92
2018-03-04T10:42:02.784Z,54.03
2018-03-04T10:43:05.284Z,51.47
2018-03-04T10:44:07.966Z,50.20
2018-03-04T10:45:10.466Z,53.97
2018-03-04T10:46:13.742Z,50.58
2018-03-04T10:47:17.011Z,46.40
2018-03-04T10:48:19.524Z,47.13
2018-03-04T10:49:22.059Z,46.33
2018-03-04T10:50:25.330Z,49.28
2018-03-04T10:51:28.612Z,49.83
2018-03-04T10:52:31.150Z,44.83
2018-03-04T10:53:33.646Z,52.10
2018-03-04T10:54:36.944Z,48.03
2018-03-04T10:55:40.226Z,44.45
2018-03-04T10:56:43.497Z,45.10
2018-03-04T10:57:46.848Z,47.28
2018-03-04T10:58:49.415Z,39.40
2018-03-04T10:59:51.952Z,46.28
2018-03-04T11:00:55.262Z,41.13
2018-03-04T11:02:03.515Z,44.20
2018-03-04T11:03:06.788Z,41.00
2018-03-04T11:04:10.242Z,47.60
2018-03-04T11:05:12.779Z,43.95
2018-03-04T11:06:15.294Z,46.15
2018-03-04T11:07:17.798Z,45.55
2018-03-04T11:08:20.302Z,42.55
2018-03-04T11:09:22.872Z,44.47
2018-03-04T11:10:25.399Z,39.85
2018-03-04T11:11:27.910Z,43.25
2018-03-04T11:12:30.415Z,44.03
2018-03-04T11:13:32.931Z,42.92
2018-03-04T11:14:35.450Z,43.25
2018-03-04T11:15:38.471Z,41.80
2018-03-04T11:16:40.985Z,40.22
2018-03-04T11:17:43.492Z,44.67
2018-03-04T11:18:46.026Z,45.63
2018-03-04T11:19:48.531Z,39.22
2018-03-04T11:20:52.036Z,40.90
2018-03-04T11:21:54.553Z,39.90
2018-03-04T11:22:57.051Z,38.17
2018-03-04T11:24:00.129Z,43.90
2018-03-04T11:25:02.638Z,41.00
2018-03-04T11:26:05.935Z,41.90
2018-03-04T11:27:08.435Z,43.03
2018-03-04T11:28:10.938Z,41.65
2018-03-04T11:29:13.547Z,39.35
2018-03-04T11:30:16.068Z,38.88
2018-03-04T11:31:18.591Z,43.83
2018-03-04T11:32:21.098Z,42.13
2018-03-04T11:33:23.635Z,37.65
2018-03-04T11:34:26.134Z,38.72
2018-03-04T11:35:29.404Z,42.53
2018-03-04T11:36:31.940Z,44.33
2018-03-04T11:37:35.417Z,41.70
2018-03-04T11:38:37.923Z,40.12
2018-03-04T11:39:41.340Z,38.45
2018-03-04T11:40:44.606Z,41.13
2018-03-04T11:41:47.901Z,44.47
2018-03-04T11:42:51.229Z,45.17
2018-03-04T11:43:53.700Z,41.70
2018-03-04T11:44:56.241Z,39.97
2018-03-04T11:45:58.801Z,36.35
2018-03-04T11:47:01.344Z,42.67
2018-03-04T11:48:04.643Z,39.55
2018-03-04T11:49:07.244Z,41.65
2018-03-04T11:50:09.771Z,45.22
2018-03-04T11:51:12.285Z,40.12
2018-03-04T11:52:14.926Z,40.90
2018-03-04T11:53:17.443Z,40.35
2018-03-04T11:54:19.957Z,37.38
2018-03-04T11:55:22.466Z,35.35
2018-03-04T11:56:24.980Z,39.42
2018-03-04T11:57:27.509Z,37.78
2018-03-04T11:58:30.798Z,39.00
2018-03-04T11:59:34.107Z,40.15
2018-03-04T12:00:39.244Z,38.83
2018-03-04T12:01:41.751Z,40.17
2018-03-04T12:02:44.274Z,39.85
2018-03-04T12:03:46.812Z,40.95
2018-03-04T12:04:50.088Z,38.33
2018-03-04T12:05:53.522Z,36.95
2018-03-04T12:06:56.053Z,34.50
2018-03-04T12:07:59.350Z,37.30
2018-03-04T12:09:01.854Z,39.05
2018-03-04T12:10:04.356Z,40.42
2018-03-04T12:11:07.626Z,37.45
2018-03-04T12:12:10.126Z,39.78
2018-03-04T12:13:12.670Z,42.35
2018-03-04T12:14:15.931Z,42.42
2018-03-04T12:15:18.436Z,44.25
2018-03-04T12:16:21.766Z,38.88
2018-03-04T12:17:24.324Z,41.95
2018-03-04T12:18:26.954Z,39.05
2018-03-04T12:19:30.959Z,40.28
2018-03-04T12:20:33.479Z,40.20
2018-03-04T12:21:35.991Z,46.60
2018-03-04T12:22:38.515Z,43.38
2018-03-04T12:23:41.059Z,41.20
2018-03-04T12:24:44.418Z,40.22
2018-03-04T12:25:46.930Z,36.97
2018-03-04T12:26:49.543Z,41.22
2018-03-04T12:27:53.131Z,35.83
2018-03-04T12:28:55.934Z,40.12
2018-03-04T12:29:59.071Z,36.63
2018-03-04T12:31:01.586Z,41.28
2018-03-04T12:32:04.088Z,33.38
2018-03-04T12:33:06.614Z,38.92
2018-03-04T12:34:09.148Z,35.88
2018-03-04T12:35:11.651Z,34.95
2018-03-04T12:36:14.154Z,36.70
2018-03-04T12:37:17.428Z,38.08
2018-03-04T12:38:20.773Z,37.78
2018-03-04T12:39:23.326Z,38.45
2018-03-04T12:40:25.879Z,37.50
2018-03-04T12:41:28.387Z,37.35
2018-03-04T12:42:30.887Z,38.03
2018-03-04T12:43:33.391Z,35.90
2018-03-04T12:44:35.922Z,34.10
2018-03-04T12:45:39.191Z,35.55
2018-03-04T12:46:41.692Z,39.58
2018-03-04T12:47:44.199Z,35.28
2018-03-04T12:48:46.711Z,34.58
2018-03-04T12:49:49.279Z,34.88
2018-03-04T12:50:51.778Z,35.78
2018-03-04T12:51:54.292Z,41.33
2018-03-04T12:52:57.568Z,32.22
2018-03-04T12:54:00.079Z,37.53
2018-03-04T12:55:03.120Z,39.60
2018-03-04T12:56:06.445Z,35.80
2018-03-04T12:57:09.684Z,37.50
2018-03-04T12:58:12.968Z,35.08
2018-03-04T12:59:15.503Z,38.40
2018-03-04T13:00:18.039Z,37.78
2018-03-04T13:01:20.571Z,33.55
2018-03-04T13:02:23.850Z,38.70
2018-03-04T13:03:27.123Z,32.38
2018-03-04T13:04:29.627Z,35.88
2018-03-04T13:05:32.162Z,36.50
2018-03-04T13:06:36.255Z,36.92
2018-03-04T13:07:38.782Z,34.88
2018-03-04T13:08:41.287Z,37.00
2018-03-04T13:09:43.795Z,34.97
2018-03-04T13:10:46.347Z,38.47
2018-03-04T13:11:48.860Z,34.80
2018-03-04T13:12:51.389Z,38.03
2018-03-04T13:13:53.908Z,35.75
2018-03-04T13:14:57.188Z,36.38
2018-03-04T13:15:59.734Z,37.10
2018-03-04T13:17:02.230Z,33.22
2018-03-04T13:18:07.320Z,36.35
2018-03-04T13:19:09.850Z,37.63
2018-03-04T13:20:12.395Z,33.17
2018-03-04T13:21:15.696Z,35.97
2018-03-04T13:22:18.316Z,39.65
2018-03-04T13:23:20.794Z,36.30
2018-03-04T13:24:23.294Z,41.00
2018-03-04T13:25:25.821Z,38.35
2018-03-04T13:26:28.355Z,32.65
2018-03-04T13:27:30.867Z,40.75
2018-03-04T13:28:33.365Z,35.33
2018-03-04T13:29:35.872Z,35.67
2018-03-04T13:30:38.400Z,33.85